Time;durP1;ratioP1;P1;durP2;ratioP2;P2;SDS_P1;SDS_P2;PMS_P1;PMS_P2;Temp;Humidity;BMP_temperature;BMP_pressure;BME280_temperature;BME280_humidity;BME280_pressure;Samples;Min_cycle;Max_cycle;Signal;HPM_P1;HPM_P2
2023/04/19 00:00:07;;;;;;;13.38;8.27;;;;;;;11.46;70.53;100137.09;322473;28;16014;-74
2023/04/19 00:00:20;;;;;;;13.05;8.23;;;;;;;11.41;70.45;100137.22;335765;28;5220;-74
2023/04/19 00:00:33;;;;;;;13.25;8.40;;;;;;;11.51;70.50;100133.47;333020;28;18114;-75
2023/04/19 00:00:45;;;;;;;14.05;8.43;;;;;;;11.54;70.17;100133.38;332907;29;9464;-75
2023/04/19 00:00:58;;;;;;;15.25;8.93;;;;;;;11.56;70.48;100135.94;334572;29;4579;-75
2023/04/19 00:01:11;;;;;;;14.15;9.10;;;;;;;11.59;70.13;100135.84;332018;29;4541;-75
2023/04/19 00:01:23;;;;;;;13.88;8.88;;;;;;;11.57;69.99;100135.91;329131;29;17401;-74
2023/04/19 00:01:35;;;;;;;13.07;8.23;;;;;;;11.53;70.58;100134.28;329871;29;9229;-74
2023/04/19 00:01:47;;;;;;;12.07;8.00;;;;;;;11.58;70.24;100134.13;332275;29;4677;-74
2023/04/19 00:02:00;;;;;;;13.23;8.20;;;;;;;11.60;70.41;100133.19;332580;29;5280;-75
2023/04/19 00:02:12;;;;;;;14.32;8.63;;;;;;;11.63;70.11;100136.59;330344;29;18104;-75
2023/04/19 00:02:24;;;;;;;13.90;8.70;;;;;;;11.62;70.26;100132.31;333382;29;5766;-75
2023/04/19 00:02:38;;;;;;;12.85;8.57;;;;;;;11.51;70.21;100137.78;330818;29;17644;-75
2023/04/19 00:02:53;;;;;;;14.07;8.93;;;;;;;11.38;70.70;100132.09;331585;29;17983;-74
2023/04/19 00:03:07;;;;;;;14.00;8.90;;;;;;;11.48;70.87;100133.53;330178;29;4739;-75
2023/04/19 00:03:24;;;;;;;12.65;8.52;;;;;;;11.51;70.62;100136.06;334251;29;4570;-75
2023/04/19 00:03:36;;;;;;;12.98;8.50;;;;;;;11.53;70.41;100133.41;331727;29;17921;-74
2023/04/19 00:03:49;;;;;;;13.82;8.73;;;;;;;11.54;69.95;100137.72;334397;29;4630;-75
2023/04/19 00:04:02;;;;;;;13.55;8.80;;;;;;;11.58;70.08;100131.53;333193;29;18113;-75
2023/04/19 00:04:14;;;;;;;13.38;8.73;;;;;;;11.56;69.99;100131.56;335380;29;4508;-75
2023/04/19 00:04:27;;;;;;;12.48;8.65;;;;;;;11.54;70.19;100135.97;333499;29;17947;-75
2023/04/19 00:04:39;;;;;;;12.68;8.68;;;;;;;11.46;70.67;100137.94;335517;29;5582;-74
2023/04/19 00:04:52;;;;;;;13.40;8.80;;;;;;;11.47;70.95;100137.06;334659;28;18164;-75
2023/04/19 00:05:05;;;;;;;15.07;8.77;;;;;;;11.41;70.72;100137.22;337509;28;5007;-74
2023/04/19 00:05:17;;;;;;;14.95;8.80;;;;;;;11.43;70.71;100131.97;331603;29;18354;-74
2023/04/19 00:05:30;;;;;;;15.23;9.05;;;;;;;11.45;70.96;100132.78;334786;29;5210;-74
2023/04/19 00:05:42;;;;;;;14.57;8.93;;;;;;;11.47;70.57;100131.84;331612;29;16659;-74
2023/04/19 00:05:57;;;;;;;14.30;9.13;;;;;;;11.47;70.65;100131.84;333577;29;5299;-74
2023/04/19 00:06:09;;;;;;;13.90;9.00;;;;;;;11.50;71.04;100131.75;332298;29;17890;-75
2023/04/19 00:06:22;;;;;;;13.70;8.68;;;;;;;11.40;70.97;100135.50;331899;29;16772;-75
2023/04/19 00:06:34;;;;;;;13.73;8.60;;;;;;;11.43;70.83;100132.84;334506;29;5224;-74
2023/04/19 00:06:46;;;;;;;13.55;8.57;;;;;;;11.36;70.75;100128.69;331145;29;18032;-75
2023/04/19 00:06:58;;;;;;;12.40;8.30;;;;;;;11.41;71.21;100129.44;332002;29;5569;-74
2023/04/19 00:07:10;;;;;;;12.18;7.90;;;;;;;11.23;71.10;100127.31;330291;29;5327;-74
2023/04/19 00:07:22;;;;;;;12.68;8.35;;;;;;;11.29;71.26;100127.13;331946;29;18141;-72
2023/04/19 00:07:35;;;;;;;12.40;8.27;;;;;;;11.31;71.31;100135.78;333397;29;4841;-72
2023/04/19 00:07:47;;;;;;;12.60;8.23;;;;;;;11.28;71.87;100131.50;329852;29;18070;-73
2023/04/19 00:07:59;;;;;;;13.50;8.75;;;;;;;11.24;71.80;100129.03;332929;29;4708;-74
2023/04/19 00:08:11;;;;;;;13.00;8.82;;;;;;;11.33;71.34;100128.78;331419;29;9406;-74
2023/04/19 00:08:25;;;;;;;12.82;8.63;;;;;;;11.38;71.38;100132.09;333384;29;4527;-74
2023/04/19 00:08:37;;;;;;;12.68;8.43;;;;;;;11.44;71.00;100131.94;329882;29;17858;-71
2023/04/19 00:08:49;;;;;;;13.25;8.70;;;;;;;11.46;71.10;100127.53;333539;29;4696;-72
2023/04/19 00:09:01;;;;;;;14.10;8.63;;;;;;;11.50;70.92;100130.91;330094;29;18047;-73
2023/04/19 00:09:13;;;;;;;14.10;8.70;;;;;;;11.50;70.81;100126.53;334730;29;4549;-73
2023/04/19 00:09:25;;;;;;;13.70;8.50;;;;;;;11.55;70.93;100135.09;336145;28;9130;-73
2023/04/19 00:09:37;;;;;;;12.95;8.27;;;;;;;11.38;71.13;100132.09;333583;28;18300;-73
2023/04/19 00:09:49;;;;;;;12.25;8.18;;;;;;;11.20;70.62;100131.72;336158;28;4591;-74
2023/04/19 00:10:01;;;;;;;12.75;8.55;;;;;;;11.27;71.34;100127.22;332369;28;5235;-75
2023/04/19 00:10:13;;;;;;;12.70;8.65;;;;;;;11.32;71.26;100127.91;337436;28;4587;-74
2023/04/19 00:10:25;;;;;;;12.77;8.45;;;;;;;11.39;71.02;100128.63;334966;28;10465;-75
2023/04/19 00:10:38;;;;;;;12.80;8.60;;;;;;;11.44;70.94;100126.72;336430;28;4546;-73
2023/04/19 00:10:51;;;;;;;13.80;8.77;;;;;;;11.46;70.63;100124.94;334661;28;17885;-72
2023/04/19 00:11:03;;;;;;;13.95;8.70;;;;;;;11.50;70.80;100131.75;337148;28;5200;-72
2023/04/19 00:11:15;;;;;;;13.20;8.50;;;;;;;11.49;71.20;100123.97;337208;28;4667;-72
2023/04/19 00:11:27;;;;;;;12.98;8.77;;;;;;;11.48;71.04;100123.13;333410;28;18361;-74
2023/04/19 00:11:40;;;;;;;13.27;8.90;;;;;;;11.51;71.09;100127.38;335694;28;4723;-74
2023/04/19 00:11:51;;;;;;;13.05;8.65;;;;;;;11.41;70.92;100126.81;333794;28;18030;-74
2023/04/19 00:12:04;;;;;;;13.02;8.45;;;;;;;11.45;70.95;100133.66;336413;28;5547;-74
2023/04/19 00:12:16;;;;;;;13.35;8.82;;;;;;;11.38;70.86;100121.69;333233;28;17958;-74
2023/04/19 00:12:28;;;;;;;14.40;8.88;;;;;;;11.40;71.08;100122.50;337630;28;5196;-75
2023/04/19 00:12:40;;;;;;;14.30;8.93;;;;;;;11.45;71.18;100120.63;336353;28;5480;-75
2023/04/19 00:12:52;;;;;;;14.38;9.07;;;;;;;11.46;70.93;100126.69;334569;28;17910;-75
2023/04/19 00:13:04;;;;;;;14.40;8.98;;;;;;;11.49;70.90;100130.06;335631;28;4686;-75
2023/04/19 00:13:16;;;;;;;13.35;8.80;;;;;;;11.51;70.89;100130.00;333752;28;18115;-74
2023/04/19 00:13:28;;;;;;;14.55;8.70;;;;;;;11.43;70.58;100125.03;336322;28;5218;-73
2023/04/19 00:13:42;;;;;;;15.18;8.85;;;;;;;11.50;70.94;100131.75;333257;28;17904;-75
2023/04/19 00:13:54;;;;;;;16.63;8.70;;;;;;;11.45;70.52;100127.56;335973;28;5443;-74
2023/04/19 00:14:06;;;;;;;15.40;8.90;;;;;;;11.45;70.83;100122.34;333021;28;18013;-75
2023/04/19 00:14:18;;;;;;;14.90;9.10;;;;;;;11.47;70.72;100124.03;334351;28;4590;-75
2023/04/19 00:14:30;;;;;;;13.65;8.65;;;;;;;11.51;70.81;100125.66;332629;28;5301;-75
2023/04/19 00:14:42;;;;;;;13.05;8.23;;;;;;;11.44;70.83;100121.50;334699;28;5660;-75
2023/04/19 00:14:54;;;;;;;13.55;8.52;;;;;;;11.48;70.63;100123.13;334236;29;4524;-74
2023/04/19 00:15:07;;;;;;;14.82;8.80;;;;;;;11.47;70.54;100126.66;332137;29;18105;-73
2023/04/19 00:15:19;;;;;;;15.07;9.02;;;;;;;11.36;70.58;100123.47;334865;29;4502;-72
2023/04/19 00:15:31;;;;;;;13.77;9.13;;;;;;;11.34;70.72;100125.28;332649;29;18033;-72
2023/04/19 00:15:43;;;;;;;13.48;9.07;;;;;;;11.40;70.89;100122.50;334283;29;4698;-72
2023/04/19 00:15:55;;;;;;;13.13;8.57;;;;;;;11.44;70.70;100121.50;336028;29;5377;-72
2023/04/19 00:16:07;;;;;;;12.20;8.23;;;;;;;11.38;70.53;100127.75;329216;29;18512;-74
2023/04/19 00:16:19;;;;;;;11.68;8.20;;;;;;;11.41;71.23;100121.63;332381;29;5534;-74
2023/04/19 00:16:31;;;;;;;12.85;8.30;;;;;;;11.45;71.22;100123.22;328466;29;18539;-74
2023/04/19 00:16:43;;;;;;;13.48;8.45;;;;;;;11.39;71.06;100124.25;333408;29;5474;-74
2023/04/19 00:16:55;;;;;;;14.30;8.48;;;;;;;11.30;70.95;100123.66;331347;29;10050;-74
2023/04/19 00:17:07;;;;;;;13.45;8.43;;;;;;;11.33;71.04;100123.59;332105;29;17288;-75
2023/04/19 00:17:20;;;;;;;12.10;8.48;;;;;;;11.33;71.14;100114.03;333847;29;4841;-74
2023/04/19 00:17:33;;;;;;;12.65;8.77;;;;;;;11.39;71.14;100120.81;331861;28;18433;-75
2023/04/19 00:17:45;;;;;;;14.82;9.00;;;;;;;11.32;70.99;100117.50;332011;28;5334;-74
2023/04/19 00:17:57;;;;;;;15.50;8.93;;;;;;;11.31;71.57;100126.22;336032;29;4504;-74
2023/04/19 00:18:09;;;;;;;15.40;8.98;;;;;;;11.37;71.50;100120.00;333780;29;5286;-74
2023/04/19 00:18:21;;;;;;;13.50;8.93;;;;;;;11.32;71.41;100125.31;333062;29;18025;-74
2023/04/19 00:18:37;;;;;;;12.48;8.43;;;;;;;11.37;71.27;100126.06;336995;28;4594;-74
2023/04/19 00:18:49;;;;;;;13.10;8.40;;;;;;;11.38;71.39;100124.28;333875;28;18479;-74
2023/04/19 00:19:01;;;;;;;13.52;8.48;;;;;;;11.32;71.31;100127.06;334330;28;17824;-75
2023/04/19 00:19:13;;;;;;;13.65;8.40;;;;;;;11.35;71.36;100121.78;335149;29;4519;-74
2023/04/19 00:19:25;;;;;;;13.57;8.57;;;;;;;11.37;71.23;100120.00;333340;29;9728;-75
2023/04/19 00:19:38;;;;;;;14.05;8.95;;;;;;;11.44;70.90;100120.66;335995;29;4742;-75
2023/04/19 00:19:49;;;;;;;14.25;9.23;;;;;;;11.37;71.33;100122.59;335910;29;4721;-74
2023/04/19 00:20:03;;;;;;;14.43;9.15;;;;;;;11.41;70.78;100129.44;331566;29;19303;-75
2023/04/19 00:20:15;;;;;;;14.68;8.82;;;;;;;11.46;71.17;100124.06;333853;29;4705;-75
2023/04/19 00:20:27;;;;;;;14.25;8.60;;;;;;;11.42;70.84;100118.09;332002;29;18467;-75
2023/04/19 00:20:39;;;;;;;13.43;8.70;;;;;;;11.45;70.95;100118.03;335020;29;5847;-74
2023/04/19 00:20:51;;;;;;;13.90;8.85;;;;;;;11.28;71.34;100117.63;331488;29;16367;-74
2023/04/19 00:21:03;;;;;;;14.18;9.02;;;;;;;11.36;71.11;100113.91;334568;29;5364;-75
2023/04/19 00:21:15;;;;;;;15.27;9.20;;;;;;;11.25;70.90;100116.00;334387;29;10790;-74
2023/04/19 00:21:27;;;;;;;14.93;9.13;;;;;;;11.32;70.79;100116.66;330872;29;17101;-74
2023/04/19 00:21:40;;;;;;;14.50;8.63;;;;;;;11.29;71.00;100116.72;332891;29;4668;-74
2023/04/19 00:21:52;;;;;;;13.73;8.65;;;;;;;11.29;71.76;100124.53;331697;28;18540;-74
2023/04/19 00:22:04;;;;;;;12.45;8.52;;;;;;;11.34;71.41;100117.47;335115;28;4548;-75
2023/04/19 00:22:16;;;;;;;13.65;9.07;;;;;;;11.27;71.50;100118.53;330908;28;18202;-74
2023/04/19 00:22:28;;;;;;;14.48;9.35;;;;;;;11.34;71.36;100115.72;333558;29;5329;-75
2023/04/19 00:22:40;;;;;;;14.45;9.07;;;;;;;11.37;71.10;100114.78;333954;29;4721;-75
2023/04/19 00:22:53;;;;;;;14.23;9.13;;;;;;;11.38;70.68;100117.31;332594;28;18240;-74
2023/04/19 00:23:05;;;;;;;13.70;9.55;;;;;;;11.26;70.88;100119.44;338733;28;4661;-74
2023/04/19 00:23:17;;;;;;;13.60;9.00;;;;;;;11.32;71.02;100117.50;335801;28;18538;-75
2023/04/19 00:23:29;;;;;;;13.82;8.90;;;;;;;11.34;70.94;100115.72;338791;28;5439;-75
2023/04/19 00:23:46;;;;;;;13.18;8.52;;;;;;;11.40;71.20;100114.69;335040;28;18185;-75
2023/04/19 00:23:58;;;;;;;13.27;8.50;;;;;;;11.46;71.17;100124.94;332294;29;17709;-75
2023/04/19 00:24:10;;;;;;;13.88;8.65;;;;;;;11.42;70.70;100112.03;333453;28;7388;-75
2023/04/19 00:24:22;;;;;;;13.38;8.43;;;;;;;11.46;70.92;100117.13;336125;29;4884;-74
2023/04/19 00:24:34;;;;;;;12.35;8.30;;;;;;;11.49;71.02;100113.56;334464;29;4555;-74
2023/04/19 00:24:46;;;;;;;13.02;8.55;;;;;;;11.49;70.74;100119.66;331824;28;17554;-75
2023/04/19 00:24:58;;;;;;;13.60;8.90;;;;;;;11.50;70.90;100116.13;337024;28;5709;-75
2023/04/19 00:25:10;;;;;;;14.50;9.27;;;;;;;11.51;70.21;100111.75;336714;28;4675;-75
2023/04/19 00:25:22;;;;;;;14.70;9.20;;;;;;;11.47;70.62;100111.03;332023;28;19283;-75
2023/04/19 00:25:34;;;;;;;14.40;9.50;;;;;;;11.37;70.69;100104.38;335041;29;4568;-75
2023/04/19 00:25:48;;;;;;;15.10;9.43;;;;;;;11.41;70.67;100111.22;330787;29;18383;-75
2023/04/19 00:26:03;;;;;;;14.75;9.13;;;;;;;11.45;70.94;100112.81;333359;29;5607;-75
2023/04/19 00:26:15;;;;;;;14.10;9.02;;;;;;;11.49;70.82;100114.44;333543;29;18291;-75
2023/04/19 00:26:27;;;;;;;13.65;8.90;;;;;;;11.50;70.75;100110.91;331217;29;18325;-75
2023/04/19 00:26:39;;;;;;;13.40;9.07;;;;;;;11.55;70.44;100114.25;333213;29;5416;-75
2023/04/19 00:26:51;;;;;;;14.65;9.40;;;;;;;11.40;70.86;100109.47;332348;29;18195;-74
2023/04/19 00:27:03;;;;;;;15.25;9.52;;;;;;;11.48;70.74;100112.72;334253;28;4700;-75
2023/04/19 00:27:15;;;;;;;13.95;8.93;;;;;;;11.50;70.76;100112.69;334455;28;5123;-75
2023/04/19 00:27:27;;;;;;;13.98;8.82;;;;;;;11.50;70.45;100110.06;333500;28;18042;-75
2023/04/19 00:27:39;;;;;;;13.43;8.93;;;;;;;11.54;70.93;100107.31;332222;28;5260;-75
2023/04/19 00:27:51;;;;;;;13.73;9.23;;;;;;;11.48;70.56;100107.50;332573;29;18499;-74
2023/04/19 00:28:04;;;;;;;13.90;9.20;;;;;;;11.45;70.61;100111.94;335466;29;4580;-74
2023/04/19 00:28:15;;;;;;;13.88;9.00;;;;;;;11.42;70.66;100112.91;331834;29;10501;-75
2023/04/19 00:28:27;;;;;;;13.90;8.75;;;;;;;11.46;70.92;100104.09;334203;29;4654;-75
2023/04/19 00:28:39;;;;;;;14.35;8.88;;;;;;;11.50;70.63;100113.53;335565;29;5617;-75
2023/04/19 00:28:52;;;;;;;14.70;8.90;;;;;;;11.52;70.62;100106.53;329713;29;18225;-75
2023/04/19 00:29:05;;;;;;;16.17;8.90;;;;;;;11.53;70.44;100110.84;331830;29;9549;-75
2023/04/19 00:29:17;;;;;;;15.23;8.85;;;;;;;11.55;70.35;100113.38;334517;29;4528;-75
2023/04/19 00:29:29;;;;;;;14.35;9.00;;;;;;;11.39;70.59;100107.78;334511;29;4762;-74
2023/04/19 00:29:41;;;;;;;15.00;9.23;;;;;;;11.46;70.42;100111.91;332884;28;18192;-74
2023/04/19 00:29:53;;;;;;;14.43;9.10;;;;;;;11.49;70.47;100119.66;334725;29;4677;-75
2023/04/19 00:30:06;;;;;;;14.48;8.73;;;;;;;11.53;70.57;100104.75;332669;28;6248;-75
2023/04/19 00:30:18;;;;;;;15.30;9.05;;;;;;;11.56;70.29;100115.94;336416;28;5617;-75
2023/04/19 00:30:30;;;;;;;16.40;8.80;;;;;;;11.58;70.13;100119.34;336210;28;4667;-75
2023/04/19 00:30:42;;;;;;;17.65;9.13;;;;;;;11.59;70.43;100113.28;331925;29;18340;-75
2023/04/19 00:30:54;;;;;;;17.10;9.55;;;;;;;11.62;70.29;100116.69;334422;28;4547;-75
2023/04/19 00:31:06;;;;;;;15.05;9.57;;;;;;;11.63;70.38;100118.38;330861;29;18135;-75
2023/04/19 00:31:18;;;;;;;12.82;9.27;;;;;;;11.64;70.41;100112.28;334178;29;4652;-75
2023/04/19 00:31:30;;;;;;;12.80;8.77;;;;;;;11.67;70.22;100117.38;332604;28;4679;-75
2023/04/19 00:31:42;;;;;;;13.85;8.55;;;;;;;11.67;69.94;100118.25;336312;28;4529;-75
2023/04/19 00:31:54;;;;;;;13.70;8.70;;;;;;;11.67;70.06;100118.25;334967;29;5214;-75
2023/04/19 00:32:07;;;;;;;14.07;9.05;;;;;;;11.70;70.10;100117.31;332266;28;18172;-75
2023/04/19 00:32:19;;;;;;;14.07;8.90;;;;;;;11.72;69.76;100120.72;335909;28;4694;-75
2023/04/19 00:32:31;;;;;;;13.52;8.82;;;;;;;11.75;69.83;100110.19;332370;29;4709;-75
2023/04/19 00:32:43;;;;;;;13.82;8.82;;;;;;;11.76;69.99;100117.13;334691;29;5088;-75
2023/04/19 00:32:55;;;;;;;13.45;8.93;;;;;;;11.77;69.73;100114.47;336305;28;5598;-74
2023/04/19 00:33:11;;;;;;;12.55;8.75;;;;;;;11.80;69.73;100119.56;333306;28;19085;-74
2023/04/19 00:33:24;;;;;;;12.27;8.43;;;;;;;11.83;69.33;100118.66;332323;28;18357;-74
2023/04/19 00:33:36;;;;;;;12.65;8.55;;;;;;;11.84;69.64;100119.50;331341;29;9654;-75
2023/04/19 00:33:49;;;;;;;13.43;9.00;;;;;;;11.87;69.43;100124.59;334541;29;17418;-75
2023/04/19 00:34:03;;;;;;;14.43;9.00;;;;;;;11.86;69.57;100121.16;331558;29;5569;-74
2023/04/19 00:34:15;;;;;;;13.30;8.52;;;;;;;11.88;69.42;100126.31;334854;29;5463;-74
2023/04/19 00:34:27;;;;;;;13.35;8.57;;;;;;;11.86;69.57;100128.97;331313;29;18596;-74
2023/04/19 00:34:39;;;;;;;14.05;8.65;;;;;;;11.88;69.59;100127.16;334908;29;6974;-74
2023/04/19 00:34:51;;;;;;;13.52;8.80;;;;;;;11.85;69.43;100122.06;331457;29;19095;-74
2023/04/19 00:35:04;;;;;;;13.57;8.98;;;;;;;11.87;69.04;100125.47;334846;29;5453;-74
2023/04/19 00:35:16;;;;;;;13.60;9.10;;;;;;;11.87;69.37;100125.47;333426;29;10065;-74
2023/04/19 00:35:28;;;;;;;13.93;9.05;;;;;;;11.86;69.31;100134.16;336462;28;4667;-74
2023/04/19 00:35:41;;;;;;;14.00;9.18;;;;;;;11.86;69.53;100128.97;337233;28;5462;-74
2023/04/19 00:35:53;;;;;;;13.93;9.02;;;;;;;11.87;69.12;100125.47;331597;28;16375;-75
2023/04/19 00:36:05;;;;;;;15.68;9.05;;;;;;;11.88;69.21;100121.94;333209;28;4690;-75
2023/04/19 00:36:17;;;;;;;16.10;9.05;;;;;;;11.88;69.00;100127.16;332412;28;18175;-75
2023/04/19 00:36:29;;;;;;;15.18;8.77;;;;;;;11.88;68.87;100132.38;335295;29;4630;-75
2023/04/19 00:36:41;;;;;;;11.88;8.50;;;;;;;11.85;69.21;100127.28;332240;28;18053;-74
2023/04/19 00:36:53;;;;;;;11.73;8.32;;;;;;;11.85;68.77;100119.47;334541;29;5810;-75
2023/04/19 00:37:07;;;;;;;14.43;8.68;;;;;;;11.86;68.52;100131.56;335732;28;4561;-75
2023/04/19 00:37:19;;;;;;;15.75;8.85;;;;;;;11.88;68.86;100136.75;333598;28;18007;-75
2023/04/19 00:37:31;;;;;;;12.80;8.23;;;;;;;11.88;68.85;100127.16;334034;28;19049;-75
2023/04/19 00:37:43;;;;;;;12.82;8.15;;;;;;;11.88;69.05;100132.38;337337;28;5373;-75
2023/04/19 00:37:55;;;;;;;13.98;8.60;;;;;;;11.83;68.84;100131.69;335916;29;4652;-75
2023/04/19 00:38:07;;;;;;;15.23;9.15;;;;;;;11.83;69.06;100129.06;333431;29;17956;-74
2023/04/19 00:38:19;;;;;;;14.65;8.70;;;;;;;11.83;69.07;100134.28;334347;29;4861;-75
2023/04/19 00:38:31;;;;;;;14.52;8.77;;;;;;;11.85;69.14;100132.47;332450;29;9988;-75
2023/04/19 00:38:43;;;;;;;14.88;9.13;;;;;;;11.85;68.95;100132.47;334800;29;5265;-75
2023/04/19 00:38:55;;;;;;;14.50;9.13;;;;;;;11.85;69.05;100136.81;334829;29;5648;-75
2023/04/19 00:39:07;;;;;;;14.70;8.88;;;;;;;11.85;68.64;100131.59;332055;29;18211;-75
2023/04/19 00:39:19;;;;;;;14.88;8.60;;;;;;;11.84;68.84;100140.34;334444;29;5321;-75
2023/04/19 00:39:31;;;;;;;15.15;8.63;;;;;;;11.85;68.61;100135.09;332139;29;10416;-75
2023/04/19 00:39:43;;;;;;;13.98;8.63;;;;;;;11.82;68.93;100129.97;334779;29;4585;-75
2023/04/19 00:39:54;;;;;;;14.77;8.75;;;;;;;11.80;68.97;100132.59;334608;29;5371;-75
2023/04/19 00:40:07;;;;;;;15.57;9.07;;;;;;;11.77;68.96;100137.03;328685;28;19015;-74
2023/04/19 00:40:19;;;;;;;15.05;9.02;;;;;;;11.79;68.56;100132.63;335145;28;4657;-75
2023/04/19 00:40:31;;;;;;;15.05;9.00;;;;;;;11.79;68.70;100137.84;332117;28;18078;-75
2023/04/19 00:40:43;;;;;;;14.48;9.00;;;;;;;11.77;68.55;100139.66;334249;28;4534;-75
2023/04/19 00:40:57;;;;;;;13.48;8.82;;;;;;;11.75;68.54;100136.22;332937;28;16727;-75
2023/04/19 00:41:10;;;;;;;13.75;8.63;;;;;;;11.76;68.67;100140.56;336077;28;5136;-75
2023/04/19 00:41:22;;;;;;;14.45;8.38;;;;;;;11.78;68.70;100138.75;329640;29;16283;-73
2023/04/19 00:41:34;;;;;;;13.85;8.35;;;;;;;11.80;68.99;100140.41;335499;29;4575;-73
2023/04/19 00:41:46;;;;;;;12.82;8.32;;;;;;;11.81;68.73;100136.03;332355;28;9617;-73
2023/04/19 00:41:58;;;;;;;12.45;8.45;;;;;;;11.84;68.63;100140.34;333976;28;4619;-73
2023/04/19 00:42:10;;;;;;;13.77;8.45;;;;;;;11.84;68.76;100141.19;334784;28;4679;-73
2023/04/19 00:42:22;;;;;;;14.90;8.88;;;;;;;11.84;68.46;100141.19;332009;29;18217;-75
2023/04/19 00:42:34;;;;;;;13.75;9.10;;;;;;;11.85;68.70;100142.91;334772;29;5430;-75
2023/04/19 00:42:46;;;;;;;13.43;9.00;;;;;;;11.86;68.75;100136.78;331618;29;18118;-75
2023/04/19 00:42:58;;;;;;;12.63;9.00;;;;;;;11.85;68.44;100137.69;334587;29;5018;-75
2023/04/19 00:43:10;;;;;;;13.85;9.15;;;;;;;11.87;68.57;100140.22;334844;29;4705;-75
2023/04/19 00:43:22;;;;;;;14.05;9.20;;;;;;;11.85;68.83;100142.03;331911;28;18036;-75
2023/04/19 00:43:34;;;;;;;14.07;9.15;;;;;;;11.84;68.64;100141.19;334552;28;4968;-75
2023/04/19 00:43:46;;;;;;;14.07;8.98;;;;;;;11.87;68.95;100135.91;332059;28;17974;-75
2023/04/19 00:43:58;;;;;;;13.10;8.73;;;;;;;11.86;68.79;100139.38;334718;28;4549;-75
2023/04/19 00:44:19;;;;;;;12.25;8.55;;;;;;;11.89;68.67;100144.53;336490;28;5318;-75
2023/04/19 00:44:31;;;;;;;13.52;9.02;;;;;;;11.89;68.74;100139.34;333617;28;17530;-75
2023/04/19 00:44:43;;;;;;;14.07;9.15;;;;;;;11.90;68.95;100135.81;336652;28;4612;-74
2023/04/19 00:44:55;;;;;;;14.80;9.02;;;;;;;11.91;68.71;100139.25;336238;29;4574;-74
2023/04/19 00:45:08;;;;;;;14.55;8.93;;;;;;;11.90;68.68;100138.41;333075;29;9289;-74
2023/04/19 00:45:20;;;;;;;14.82;9.30;;;;;;;11.90;68.69;100138.41;334767;29;5698;-74
2023/04/19 00:45:34;;;;;;;13.45;8.90;;;;;;;11.93;68.87;100140.94;331596;29;18103;-74
2023/04/19 00:45:48;;;;;;;12.75;8.70;;;;;;;11.92;68.93;100139.22;331241;29;18133;-74
2023/04/19 00:46:00;;;;;;;13.32;8.98;;;;;;;11.93;68.86;100140.94;334652;29;4876;-74
2023/04/19 00:46:14;;;;;;;13.80;9.23;;;;;;;11.92;68.80;100139.22;331575;29;19324;-74
2023/04/19 00:46:26;;;;;;;14.18;9.18;;;;;;;11.93;68.97;100143.56;332081;29;17843;-74
2023/04/19 00:46:39;;;;;;;15.10;9.38;;;;;;;11.94;68.77;100136.59;334084;29;4578;-74
2023/04/19 00:46:52;;;;;;;14.35;8.95;;;;;;;11.95;69.08;100143.47;331220;29;10132;-74
2023/04/19 00:47:04;;;;;;;14.00;8.80;;;;;;;11.97;68.48;100136.47;333308;29;4587;-74
2023/04/19 00:47:16;;;;;;;13.15;8.68;;;;;;;11.98;69.01;100139.03;331329;29;7385;-74
2023/04/19 00:47:29;;;;;;;13.63;8.82;;;;;;;11.99;68.82;100139.88;332857;28;18071;-74
2023/04/19 00:47:41;;;;;;;13.77;8.80;;;;;;;11.99;68.57;100138.16;334487;28;5299;-74
2023/04/19 00:47:54;;;;;;;13.32;8.75;;;;;;;11.99;68.66;100135.53;335957;29;4605;-74
2023/04/19 00:48:07;;;;;;;13.20;8.50;;;;;;;12.02;68.85;100138.97;330839;29;18682;-74
2023/04/19 00:48:19;;;;;;;13.25;8.45;;;;;;;12.03;68.81;100138.03;335209;29;5202;-74
2023/04/19 00:48:31;;;;;;;14.43;8.68;;;;;;;12.04;68.64;100132.78;331979;29;10072;-74
2023/04/19 00:48:43;;;;;;;15.90;9.07;;;;;;;12.03;68.51;100130.22;333789;29;5792;-74
2023/04/19 00:48:56;;;;;;;15.43;8.93;;;;;;;12.04;68.72;100131.94;335524;29;5481;-74
2023/04/19 00:49:08;;;;;;;14.07;8.93;;;;;;;12.04;68.79;100137.16;331824;29;18206;-74
2023/04/19 00:49:21;;;;;;;13.85;8.95;;;;;;;12.04;68.94;100132.78;333334;29;4579;-74
2023/04/19 00:49:33;;;;;;;13.23;8.75;;;;;;;12.07;69.08;100137.03;331597;29;18096;-74
2023/04/19 00:49:46;;;;;;;13.55;8.70;;;;;;;12.05;68.83;100133.63;334556;29;4994;-74
2023/04/19 00:49:58;;;;;;;13.98;8.85;;;;;;;12.06;68.55;100131.00;332616;29;18383;-74
2023/04/19 00:50:11;;;;;;;15.15;9.20;;;;;;;12.07;68.56;100132.69;336005;29;5443;-74
2023/04/19 00:50:23;;;;;;;13.70;8.85;;;;;;;12.08;68.40;100134.41;332774;29;18259;-74
2023/04/19 00:50:35;;;;;;;14.23;9.05;;;;;;;12.08;68.65;100138.78;336206;29;4670;-74
2023/04/19 00:50:47;;;;;;;14.02;8.98;;;;;;;12.08;68.37;100138.78;332724;29;18047;-74
2023/04/19 00:50:59;;;;;;;13.38;9.18;;;;;;;12.09;68.31;100130.03;336154;29;4815;-74
2023/04/19 00:51:12;;;;;;;13.25;9.27;;;;;;;12.08;68.11;100136.16;333133;29;18587;-74
2023/04/19 00:51:26;;;;;;;12.55;8.85;;;;;;;12.07;68.40;100131.84;334598;29;4992;-74
2023/04/19 00:51:38;;;;;;;13.20;8.68;;;;;;;12.08;68.77;100123.13;332332;29;16849;-74
2023/04/19 00:51:50;;;;;;;13.52;8.70;;;;;;;12.08;68.76;100128.34;335633;29;5604;-74
2023/04/19 00:52:02;;;;;;;14.27;8.73;;;;;;;12.08;68.31;100138.78;332071;29;18134;-74
2023/04/19 00:52:14;;;;;;;13.85;8.73;;;;;;;12.09;68.43;100130.03;334517;29;4908;-74
2023/04/19 00:52:26;;;;;;;12.90;8.60;;;;;;;12.06;68.59;100130.16;332927;29;16421;-74
2023/04/19 00:52:39;;;;;;;13.02;9.13;;;;;;;12.05;68.44;100133.63;336201;29;5096;-74
2023/04/19 00:52:52;;;;;;;13.13;9.35;;;;;;;12.05;68.18;100131.88;334614;29;7987;-74
2023/04/19 00:53:06;;;;;;;13.25;8.82;;;;;;;12.05;67.94;100128.44;333374;28;17923;-74
2023/04/19 00:53:18;;;;;;;14.45;8.65;;;;;;;12.05;68.51;100131.03;333622;29;18031;-74
2023/04/19 00:53:30;;;;;;;13.95;8.75;;;;;;;12.05;67.96;100133.63;336045;29;5242;-74
2023/04/19 00:53:42;;;;;;;14.88;8.88;;;;;;;12.06;68.40;100131.00;333501;29;18017;-74
2023/04/19 00:53:55;;;;;;;14.80;8.82;;;;;;;12.06;68.39;100128.38;333895;29;5545;-74
2023/04/19 00:54:08;;;;;;;14.73;9.02;;;;;;;12.05;68.38;100128.44;331891;29;18387;-74
2023/04/19 00:54:20;;;;;;;14.40;9.02;;;;;;;12.03;68.75;100125.84;335133;29;5249;-74
2023/04/19 00:54:32;;;;;;;14.93;9.05;;;;;;;12.01;68.67;100130.25;333233;28;18031;-74
2023/04/19 00:54:44;;;;;;;15.35;9.25;;;;;;;12.03;68.41;100130.22;334302;28;5225;-74
2023/04/19 00:54:57;;;;;;;14.50;8.93;;;;;;;12.04;68.54;100126.75;333207;29;17105;-74
2023/04/19 00:55:09;;;;;;;13.70;8.48;;;;;;;12.04;68.28;100129.34;335560;29;4571;-74
2023/04/19 00:55:22;;;;;;;13.77;8.55;;;;;;;12.07;68.44;100126.63;334838;29;5725;-74
2023/04/19 00:55:34;;;;;;;13.70;8.88;;;;;;;12.07;68.48;100131.84;333718;29;18257;-74
2023/04/19 00:55:49;;;;;;;12.85;8.65;;;;;;;12.05;68.10;100129.28;332710;28;9663;-74
2023/04/19 00:56:04;;;;;;;12.90;8.38;;;;;;;12.05;68.24;100134.47;332753;28;16259;-74
2023/04/19 00:56:16;;;;;;;13.80;8.50;;;;;;;12.05;68.37;100128.44;332849;29;5418;-74
2023/04/19 00:56:28;;;;;;;14.18;8.73;;;;;;;12.06;68.16;100127.53;335441;29;5100;-74
2023/04/19 00:56:40;;;;;;;13.57;8.90;;;;;;;12.06;68.25;100130.16;334119;29;4639;-74
2023/04/19 00:56:52;;;;;;;13.80;8.95;;;;;;;12.07;68.40;100127.47;332067;29;17980;-74
2023/04/19 00:57:05;;;;;;;13.52;8.95;;;;;;;12.07;67.98;100132.69;334948;29;5637;-74
2023/04/19 00:57:17;;;;;;;12.57;8.82;;;;;;;12.08;68.34;100125.75;332279;29;18172;-74
2023/04/19 00:57:30;;;;;;;12.38;8.80;;;;;;;12.08;68.59;100133.56;333416;29;4740;-74
2023/04/19 00:57:43;;;;;;;12.20;8.48;;;;;;;12.07;68.36;100129.22;330942;29;17944;-74
2023/04/19 00:57:55;;;;;;;14.32;8.75;;;;;;;12.07;68.05;100126.63;331838;29;4951;-74
2023/04/19 00:58:08;;;;;;;15.23;8.98;;;;;;;12.07;68.63;100131.84;330003;29;10287;-74